sensor_id;sensor_type;location;lat;lon;timestamp;pressure;altitude;pressure_sealevel;temperature;humidity
39593;BME280;25286;48.870;9.084;2022-11-20T00:00:48;97490.09;;;4.24;100.00
39593;BME280;25286;48.870;9.084;2022-11-20T00:03:14;97493.94;;;4.10;100.00
39593;BME280;25286;48.870;9.084;2022-11-20T00:05:40;97495.00;;;4.09;100.00
39593;BME280;25286;48.870;9.084;2022-11-20T00:08:06;97495.19;;;4.14;100.00
39593;BME280;25286;48.870;9.084;2022-11-20T00:10:31;97488.28;;;4.18;100.00
39593;BME280;25286;48.870;9.084;2022-11-20T00:12:58;97485.09;;;4.21;100.00
39593;BME280;25286;48.870;9.084;2022-11-20T00:15:24;97490.56;;;4.15;100.00
39593;BME280;25286;48.870;9.084;2022-11-20T00:17:50;97492.47;;;4.14;100.00
39593;BME280;25286;48.870;9.084;2022-11-20T00:20:15;97494.31;;;4.20;100.00
39593;BME280;25286;48.870;9.084;2022-11-20T00:22:41;97483.03;;;4.17;100.00
39593;BME280;25286;48.870;9.084;2022-11-20T00:25:07;97489.31;;;4.17;100.00
39593;BME280;25286;48.870;9.084;2022-11-20T00:27:33;97499.72;;;4.20;100.00
39593;BME280;25286;48.870;9.084;2022-11-20T00:29:58;97489.69;;;4.27;100.00
39593;BME280;25286;48.870;9.084;2022-11-20T00:32:24;97487.16;;;4.32;100.00
39593;BME280;25286;48.870;9.084;2022-11-20T00:34:50;97486.75;;;4.29;100.00
39593;BME280;25286;48.870;9.084;2022-11-20T00:37:15;97487.63;;;4.16;100.00
39593;BME280;25286;48.870;9.084;2022-11-20T00:39:41;97497.72;;;4.09;100.00
39593;BME280;25286;48.870;9.084;2022-11-20T00:42:06;97494.00;;;4.03;100.00
39593;BME280;25286;48.870;9.084;2022-11-20T00:44:32;97494.78;;;4.11;100.00
39593;BME280;25286;48.870;9.084;2022-11-20T00:46:58;97488.69;;;4.22;100.00
39593;BME280;25286;48.870;9.084;2022-11-20T00:49:23;97494.31;;;4.20;100.00
39593;BME280;25286;48.870;9.084;2022-11-20T00:51:49;97493.91;;;4.17;100.00
39593;BME280;25286;48.870;9.084;2022-11-20T00:54:15;97500.19;;;4.17;100.00
39593;BME280;25286;48.870;9.084;2022-11-20T00:56:40;97492.81;;;4.24;100.00
39593;BME280;25286;48.870;9.084;2022-11-20T00:59:09;97493.72;;;4.12;100.00
39593;BME280;25286;48.870;9.084;2022-11-20T01:01:35;97492.72;;;4.06;100.00
39593;BME280;25286;48.870;9.084;2022-11-20T01:04:01;97500.06;;;3.92;100.00
39593;BME280;25286;48.870;9.084;2022-11-20T01:06:29;97488.97;;;4.00;100.00
39593;BME280;25286;48.870;9.084;2022-11-20T01:08:57;97503.56;;;4.06;100.00
39593;BME280;25286;48.870;9.084;2022-11-20T01:11:27;97500.19;;;4.11;100.00
39593;BME280;25286;48.870;9.084;2022-11-20T01:13:54;97495.59;;;4.18;100.00
39593;BME280;25286;48.870;9.084;2022-11-20T01:16:22;97493.91;;;4.17;100.00
39593;BME280;25286;48.870;9.084;2022-11-20T01:18:50;97502.91;;;4.11;100.00
39593;BME280;25286;48.870;9.084;2022-11-20T01:21:22;97505.22;;;4.07;100.00
39593;BME280;25286;48.870;9.084;2022-11-20T01:23:48;97506.03;;;4.14;100.00
39593;BME280;25286;48.870;9.084;2022-11-20T01:26:16;97511.69;;;4.13;100.00
39593;BME280;25286;48.870;9.084;2022-11-20T01:28:42;97504.13;;;4.21;100.00
39593;BME280;25286;48.870;9.084;2022-11-20T01:31:23;97505.09;;;4.33;100.00
39593;BME280;25286;48.870;9.084;2022-11-20T01:33:51;97505.28;;;4.39;100.00
39593;BME280;25286;48.870;9.084;2022-11-20T01:36:19;97501.25;;;4.48;100.00
39593;BME280;25286;48.870;9.084;2022-11-20T01:38:45;97501.88;;;4.50;100.00
39593;BME280;25286;48.870;9.084;2022-11-20T01:41:12;97497.88;;;4.52;100.00
39593;BME280;25286;48.870;9.084;2022-11-20T01:44:01;97504.97;;;4.53;100.00
39593;BME280;25286;48.870;9.084;2022-11-20T01:46:27;97496.22;;;4.51;100.00
39593;BME280;25286;48.870;9.084;2022-11-20T01:51:32;97499.13;;;4.56;100.00
39593;BME280;25286;48.870;9.084;2022-11-20T01:54:01;97503.28;;;4.59;100.00
39593;BME280;25286;48.870;9.084;2022-11-20T01:56:29;97496.56;;;4.62;100.00
39593;BME280;25286;48.870;9.084;2022-11-20T01:58:59;97499.63;;;4.72;100.00
39593;BME280;25286;48.870;9.084;2022-11-20T02:01:28;97502.59;;;4.70;100.00
39593;BME280;25286;48.870;9.084;2022-11-20T02:03:54;97506.09;;;4.77;100.00
39593;BME280;25286;48.870;9.084;2022-11-20T02:06:24;97500.19;;;4.80;100.00
39593;BME280;25286;48.870;9.084;2022-11-20T02:08:52;97504.78;;;4.87;100.00
39593;BME280;25286;48.870;9.084;2022-11-20T02:11:18;97504.97;;;4.85;100.00
39593;BME280;25286;48.870;9.084;2022-11-20T02:13:44;97503.09;;;4.85;100.00
39593;BME280;25286;48.870;9.084;2022-11-20T02:18:49;97501.44;;;4.84;100.00
39593;BME280;25286;48.870;9.084;2022-11-20T02:21:43;97498.50;;;4.86;100.00
39593;BME280;25286;48.870;9.084;2022-11-20T02:24:08;97493.50;;;4.83;100.00
39593;BME280;25286;48.870;9.084;2022-11-20T02:26:42;97491.84;;;4.82;100.00
39593;BME280;25286;48.870;9.084;2022-11-20T02:29:09;97492.44;;;4.84;100.00
39593;BME280;25286;48.870;9.084;2022-11-20T02:31:37;97498.94;;;4.83;100.00
39593;BME280;25286;48.870;9.084;2022-11-20T02:34:03;97498.13;;;4.82;100.00
39593;BME280;25286;48.870;9.084;2022-11-20T02:36:29;97497.66;;;4.85;100.00
39593;BME280;25286;48.870;9.084;2022-11-20T02:38:56;97496.47;;;4.81;100.00
39593;BME280;25286;48.870;9.084;2022-11-20T02:41:22;97503.97;;;4.79;100.00
39593;BME280;25286;48.870;9.084;2022-11-20T02:43:55;97497.47;;;4.80;100.00
39593;BME280;25286;48.870;9.084;2022-11-20T02:46:21;97498.53;;;4.79;100.00
39593;BME280;25286;48.870;9.084;2022-11-20T02:48:46;97498.94;;;4.83;100.00
39593;BME280;25286;48.870;9.084;2022-11-20T02:51:12;97505.59;;;4.87;100.00
39593;BME280;25286;48.870;9.084;2022-11-20T02:53:37;97497.06;;;4.83;100.00
39593;BME280;25286;48.870;9.084;2022-11-20T02:56:03;97492.03;;;4.80;100.00
39593;BME280;25286;48.870;9.084;2022-11-20T02:58:29;97505.28;;;4.77;100.00
39593;BME280;25286;48.870;9.084;2022-11-20T03:00:55;97496.06;;;4.78;100.00
39593;BME280;25286;48.870;9.084;2022-11-20T03:03:20;97494.94;;;4.85;100.00
39593;BME280;25286;48.870;9.084;2022-11-20T03:05:46;97496.47;;;4.81;100.00
39593;BME280;25286;48.870;9.084;2022-11-20T03:08:12;97494.75;;;4.80;100.00
39593;BME280;25286;48.870;9.084;2022-11-20T03:10:37;97498.53;;;4.79;100.00
39593;BME280;25286;48.870;9.084;2022-11-20T03:13:03;97491.06;;;4.75;100.00
39593;BME280;25286;48.870;9.084;2022-11-20T03:15:29;97496.47;;;4.75;100.00
39593;BME280;25286;48.870;9.084;2022-11-20T03:17:55;97487.50;;;4.74;100.00
39593;BME280;25286;48.870;9.084;2022-11-20T03:20:21;97482.28;;;4.73;100.00
39593;BME280;25286;48.870;9.084;2022-11-20T03:22:47;97489.56;;;4.79;100.00
39593;BME280;25286;48.870;9.084;2022-11-20T03:25:13;97479.00;;;4.64;100.00
39593;BME280;25286;48.870;9.084;2022-11-20T03:27:38;97478.19;;;4.64;100.00
39593;BME280;25286;48.870;9.084;2022-11-20T03:30:04;97474.25;;;4.53;100.00
39593;BME280;25286;48.870;9.084;2022-11-20T03:32:31;97476.31;;;4.57;100.00
39593;BME280;25286;48.870;9.084;2022-11-20T03:34:56;97477.81;;;4.53;100.00
39593;BME280;25286;48.870;9.084;2022-11-20T03:37:22;97474.06;;;4.54;100.00
39593;BME280;25286;48.870;9.084;2022-11-20T03:39:48;97474.44;;;4.58;100.00
39593;BME280;25286;48.870;9.084;2022-11-20T03:42:13;97475.50;;;4.57;100.00
39593;BME280;25286;48.870;9.084;2022-11-20T03:44:57;97476.56;;;4.56;100.00
39593;BME280;25286;48.870;9.084;2022-11-20T03:47:23;97476.50;;;4.63;100.00
39593;BME280;25286;48.870;9.084;2022-11-20T03:49:49;97476.06;;;4.66;100.00
39593;BME280;25286;48.870;9.084;2022-11-20T03:52:15;97481.09;;;4.62;100.00
39593;BME280;25286;48.870;9.084;2022-11-20T03:54:40;97479.03;;;4.57;100.00
39593;BME280;25286;48.870;9.084;2022-11-20T03:57:06;97477.34;;;4.63;100.00
39593;BME280;25286;48.870;9.084;2022-11-20T03:59:32;97474.91;;;4.55;100.00
39593;BME280;25286;48.870;9.084;2022-11-20T04:01:57;97472.84;;;4.50;100.00
39593;BME280;25286;48.870;9.084;2022-11-20T04:04:23;97475.31;;;4.52;100.00
39593;BME280;25286;48.870;9.084;2022-11-20T04:06:49;97485.78;;;4.48;100.00
39593;BME280;25286;48.870;9.084;2022-11-20T04:09:14;97469.53;;;4.42;100.00
39593;BME280;25286;48.870;9.084;2022-11-20T04:11:41;97477.03;;;4.46;100.00
39593;BME280;25286;48.870;9.084;2022-11-20T04:14:14;97473.50;;;4.46;100.00
39593;BME280;25286;48.870;9.084;2022-11-20T04:16:40;97470.38;;;4.42;100.00
39593;BME280;25286;48.870;9.084;2022-11-20T04:19:11;97470.59;;;4.41;100.00
39593;BME280;25286;48.870;9.084;2022-11-20T04:21:37;97471.63;;;4.40;100.00
39593;BME280;25286;48.870;9.084;2022-11-20T04:24:03;97472.09;;;4.37;100.00
39593;BME280;25286;48.870;9.084;2022-11-20T04:26:29;97477.94;;;4.33;100.00
39593;BME280;25286;48.870;9.084;2022-11-20T04:28:58;97467.50;;;4.30;100.00
39593;BME280;25286;48.870;9.084;2022-11-20T04:31:26;97468.72;;;4.34;100.00
39593;BME280;25286;48.870;9.084;2022-11-20T04:33:53;97468.97;;;4.33;100.00
39593;BME280;25286;48.870;9.084;2022-11-20T04:36:25;97466.47;;;4.31;100.00
39593;BME280;25286;48.870;9.084;2022-11-20T04:38:56;97460.00;;;4.32;100.00
39593;BME280;25286;48.870;9.084;2022-11-20T04:41:24;97466.66;;;4.37;100.00
39593;BME280;25286;48.870;9.084;2022-11-20T04:43:52;97466.66;;;4.37;100.00
39593;BME280;25286;48.870;9.084;2022-11-20T04:46:18;97467.25;;;4.39;100.00
39593;BME280;25286;48.870;9.084;2022-11-20T04:48:45;97463.31;;;4.34;100.00
39593;BME280;25286;48.870;9.084;2022-11-20T04:51:10;97456.84;;;4.36;100.00
39593;BME280;25286;48.870;9.084;2022-11-20T04:53:36;97464.59;;;4.32;100.00
39593;BME280;25286;48.870;9.084;2022-11-20T04:56:04;97469.19;;;4.31;100.00
39593;BME280;25286;48.870;9.084;2022-11-20T04:58:30;97467.91;;;4.34;100.00
39593;BME280;25286;48.870;9.084;2022-11-20T05:01:03;97468.13;;;4.32;100.00
39593;BME280;25286;48.870;9.084;2022-11-20T05:03:30;97459.59;;;4.29;100.00
39593;BME280;25286;48.870;9.084;2022-11-20T05:05:56;97456.84;;;4.36;100.00
39593;BME280;25286;48.870;9.084;2022-11-20T05:08:22;97460.16;;;4.38;100.00
39593;BME280;25286;48.870;9.084;2022-11-20T05:10:47;97463.47;;;4.40;100.00
39593;BME280;25286;48.870;9.084;2022-11-20T05:13:13;97459.75;;;4.41;100.00
39593;BME280;25286;48.870;9.084;2022-11-20T05:15:38;97461.00;;;4.38;100.00
39593;BME280;25286;48.870;9.084;2022-11-20T05:18:04;97458.69;;;4.42;100.00
39593;BME280;25286;48.870;9.084;2022-11-20T05:20:30;97463.69;;;4.45;100.00
39593;BME280;25286;48.870;9.084;2022-11-20T05:22:58;97456.38;;;4.39;100.00
39593;BME280;25286;48.870;9.084;2022-11-20T05:25:24;97458.69;;;4.42;100.00
39593;BME280;25286;48.870;9.084;2022-11-20T05:27:50;97460.97;;;4.45;100.00
39593;BME280;25286;48.870;9.084;2022-11-20T05:30:16;97460.34;;;4.43;100.00
39593;BME280;25286;48.870;9.084;2022-11-20T05:32:42;97463.06;;;4.43;100.00
39593;BME280;25286;48.870;9.084;2022-11-20T05:35:07;97464.53;;;4.39;100.00
39593;BME280;25286;48.870;9.084;2022-11-20T05:37:33;97464.28;;;4.47;100.00
39593;BME280;25286;48.870;9.084;2022-11-20T05:39:59;97457.38;;;4.44;100.00
39593;BME280;25286;48.870;9.084;2022-11-20T05:42:24;97469.28;;;4.50;100.00
39593;BME280;25286;48.870;9.084;2022-11-20T05:45:00;97463.22;;;4.48;100.00
39593;BME280;25286;48.870;9.084;2022-11-20T05:47:27;97456.19;;;4.40;100.00
39593;BME280;25286;48.870;9.084;2022-11-20T05:49:53;97460.09;;;4.44;100.00
39593;BME280;25286;48.870;9.084;2022-11-20T05:52:19;97454.91;;;4.43;100.00
39593;BME280;25286;48.870;9.084;2022-11-20T05:54:45;97454.25;;;4.47;100.00
39593;BME280;25286;48.870;9.084;2022-11-20T05:57:11;97457.38;;;4.44;100.00
39593;BME280;25286;48.870;9.084;2022-11-20T05:59:36;97460.50;;;4.48;100.00
39593;BME280;25286;48.870;9.084;2022-11-20T06:02:02;97457.97;;;4.53;100.00
39593;BME280;25286;48.870;9.084;2022-11-20T06:04:27;97444.00;;;4.49;100.00
39593;BME280;25286;48.870;9.084;2022-11-20T06:06:53;97450.69;;;4.47;100.00
39593;BME280;25286;48.870;9.084;2022-11-20T06:09:19;97451.69;;;4.52;100.00
39593;BME280;25286;48.870;9.084;2022-11-20T06:11:44;97450.63;;;4.53;100.00
39593;BME280;25286;48.870;9.084;2022-11-20T06:14:10;97450.28;;;4.50;100.00
39593;BME280;25286;48.870;9.084;2022-11-20T06:16:36;97448.97;;;4.52;100.00
39593;BME280;25286;48.870;9.084;2022-11-20T06:19:01;97453.00;;;4.50;100.00
39593;BME280;25286;48.870;9.084;2022-11-20T06:21:27;97446.91;;;4.54;100.00
39593;BME280;25286;48.870;9.084;2022-11-20T06:23:53;97444.38;;;4.53;100.00
39593;BME280;25286;48.870;9.084;2022-11-20T06:26:21;97446.50;;;4.51;100.00
39593;BME280;25286;48.870;9.084;2022-11-20T06:28:48;97449.81;;;4.53;100.00
39593;BME280;25286;48.870;9.084;2022-11-20T06:31:15;97449.16;;;4.57;100.00
39593;BME280;25286;48.870;9.084;2022-11-20T06:33:41;97448.31;;;4.57;100.00
39593;BME280;25286;48.870;9.084;2022-11-20T06:36:08;97451.00;;;4.64;100.00
39593;BME280;25286;48.870;9.084;2022-11-20T06:38:34;97457.69;;;4.61;100.00
39593;BME280;25286;48.870;9.084;2022-11-20T06:41:00;97457.28;;;4.64;100.00
39593;BME280;25286;48.870;9.084;2022-11-20T06:43:25;97456.03;;;4.60;100.00
39593;BME280;25286;48.870;9.084;2022-11-20T06:45:55;97453.50;;;4.65;100.00
39593;BME280;25286;48.870;9.084;2022-11-20T06:48:25;97447.63;;;4.68;100.00
39593;BME280;25286;48.870;9.084;2022-11-20T06:50:51;97454.72;;;4.69;100.00
39593;BME280;25286;48.870;9.084;2022-11-20T06:53:17;97455.56;;;4.70;100.00
39593;BME280;25286;48.870;9.084;2022-11-20T06:55:46;97457.59;;;4.74;100.00
39593;BME280;25286;48.870;9.084;2022-11-20T06:58:13;97464.69;;;4.75;100.00
39593;BME280;25286;48.870;9.084;2022-11-20T07:00:39;97457.19;;;4.77;100.00
39593;BME280;25286;48.870;9.084;2022-11-20T07:03:06;97463.22;;;4.79;100.00
39593;BME280;25286;48.870;9.084;2022-11-20T07:05:32;97458.84;;;4.78;100.00
39593;BME280;25286;48.870;9.084;2022-11-20T07:07:58;97464.59;;;4.89;100.00
39593;BME280;25286;48.870;9.084;2022-11-20T07:10:24;97456.59;;;4.94;100.00
39593;BME280;25286;48.870;9.084;2022-11-20T07:12:50;97460.63;;;4.91;100.00
39593;BME280;25286;48.870;9.084;2022-11-20T07:15:17;97457.91;;;4.91;100.00
39593;BME280;25286;48.870;9.084;2022-11-20T07:17:43;97464.94;;;4.99;100.00
39593;BME280;25286;48.870;9.084;2022-11-20T07:20:09;97466.63;;;5.00;100.00
39593;BME280;25286;48.870;9.084;2022-11-20T07:22:35;97467.22;;;5.02;100.00
39593;BME280;25286;48.870;9.084;2022-11-20T07:25:00;97460.28;;;5.06;100.00
39593;BME280;25286;48.870;9.084;2022-11-20T07:27:27;97476.16;;;5.09;100.00
39593;BME280;25286;48.870;9.084;2022-11-20T07:29:56;97468.59;;;5.11;100.00
39593;BME280;25286;48.870;9.084;2022-11-20T07:32:22;97472.38;;;5.10;100.00
39593;BME280;25286;48.870;9.084;2022-11-20T07:34:48;97478.97;;;5.21;100.00
39593;BME280;25286;48.870;9.084;2022-11-20T07:37:14;97475.66;;;5.19;100.00
39593;BME280;25286;48.870;9.084;2022-11-20T07:39:40;97484.47;;;5.14;100.00
39593;BME280;25286;48.870;9.084;2022-11-20T07:42:06;97483.19;;;5.17;100.00
39593;BME280;25286;48.870;9.084;2022-11-20T07:44:32;97482.31;;;5.23;100.00
39593;BME280;25286;48.870;9.084;2022-11-20T07:46:58;97479.78;;;5.21;100.00
39593;BME280;25286;48.870;9.084;2022-11-20T07:49:23;97478.53;;;5.24;100.00
39593;BME280;25286;48.870;9.084;2022-11-20T07:51:52;97483.34;;;5.22;100.00
39593;BME280;25286;48.870;9.084;2022-11-20T07:54:21;97482.66;;;5.26;100.00
39593;BME280;25286;48.870;9.084;2022-11-20T07:56:47;97481.41;;;5.29;100.00
39593;BME280;25286;48.870;9.084;2022-11-20T07:59:13;97482.91;;;5.25;100.00
39593;BME280;25286;48.870;9.084;2022-11-20T08:01:39;97491.63;;;5.33;100.00
39593;BME280;25286;48.870;9.084;2022-11-20T08:04:05;97491.78;;;5.39;100.00
39593;BME280;25286;48.870;9.084;2022-11-20T08:06:31;97486.88;;;5.47;100.00
39593;BME280;25286;48.870;9.084;2022-11-20T08:08:57;97484.53;;;5.51;100.00
39593;BME280;25286;48.870;9.084;2022-11-20T08:11:23;97481.75;;;5.57;100.00
39593;BME280;25286;48.870;9.084;2022-11-20T08:14:07;97478.34;;;5.62;100.00
39593;BME280;25286;48.870;9.084;2022-11-20T08:16:48;97487.28;;;5.69;100.00
39593;BME280;25286;48.870;9.084;2022-11-20T08:19:15;97484.31;;;5.71;100.00
39593;BME280;25286;48.870;9.084;2022-11-20T08:21:41;97491.81;;;5.75;100.00
39593;BME280;25286;48.870;9.084;2022-11-20T08:24:09;97488.03;;;5.76;100.00
39593;BME280;25286;48.870;9.084;2022-11-20T08:26:35;97494.09;;;5.78;100.00
39593;BME280;25286;48.870;9.084;2022-11-20T08:29:02;97484.75;;;5.86;100.00
39593;BME280;25286;48.870;9.084;2022-11-20T08:31:29;97493.78;;;5.86;100.00
39593;BME280;25286;48.870;9.084;2022-11-20T08:33:55;97487.00;;;5.96;100.00
39593;BME280;25286;48.870;9.084;2022-11-20T08:36:22;97496.38;;;6.00;100.00
39593;BME280;25286;48.870;9.084;2022-11-20T08:38:49;97507.25;;;6.00;100.00
39593;BME280;25286;48.870;9.084;2022-11-20T08:41:15;97503.50;;;6.01;100.00
39593;BME280;25286;48.870;9.084;2022-11-20T08:43:53;97501.66;;;5.95;100.00
39593;BME280;25286;48.870;9.084;2022-11-20T08:46:19;97509.00;;;5.94;100.00
39593;BME280;25286;48.870;9.084;2022-11-20T08:48:45;97504.19;;;5.96;100.00
39593;BME280;25286;48.870;9.084;2022-11-20T08:51:11;97513.78;;;5.99;100.00
39593;BME280;25286;48.870;9.084;2022-11-20T08:53:38;97510.84;;;6.00;100.00
39593;BME280;25286;48.870;9.084;2022-11-20T08:56:04;97511.72;;;5.94;100.00
39593;BME280;25286;48.870;9.084;2022-11-20T08:58:29;97514.84;;;5.98;100.00
39593;BME280;25286;48.870;9.084;2022-11-20T09:00:55;97521.25;;;6.03;100.00
39593;BME280;25286;48.870;9.084;2022-11-20T09:03:21;97523.78;;;6.05;100.00
39593;BME280;25286;48.870;9.084;2022-11-20T09:05:46;97522.19;;;5.97;100.00
39593;BME280;25286;48.870;9.084;2022-11-20T09:08:12;97525.19;;;6.07;100.00
39593;BME280;25286;48.870;9.084;2022-11-20T09:10:38;97525.50;;;5.99;100.00
39593;BME280;25286;48.870;9.084;2022-11-20T09:13:09;97523.91;;;6.10;100.00
39593;BME280;25286;48.870;9.084;2022-11-20T09:15:35;97524.66;;;5.99;100.00
39593;BME280;25286;48.870;9.084;2022-11-20T09:18:02;97527.91;;;6.07;100.00
39593;BME280;25286;48.870;9.084;2022-11-20T09:20:29;97530.50;;;6.02;100.00
39593;BME280;25286;48.870;9.084;2022-11-20T09:22:55;97532.44;;;5.95;100.00
39593;BME280;25286;48.870;9.084;2022-11-20T09:25:21;97537.44;;;5.98;100.00
39593;BME280;25286;48.870;9.084;2022-11-20T09:27:47;97540.03;;;5.93;100.00
39593;BME280;25286;48.870;9.084;2022-11-20T09:30:14;97546.44;;;5.99;100.00
39593;BME280;25286;48.870;9.084;2022-11-20T09:32:41;97544.78;;;5.98;100.00
39593;BME280;25286;48.870;9.084;2022-11-20T09:35:07;97543.56;;;5.94;100.00
39593;BME280;25286;48.870;9.084;2022-11-20T09:37:33;97539.59;;;5.96;100.00
39593;BME280;25286;48.870;9.084;2022-11-20T09:39:59;97541.69;;;5.94;100.00
39593;BME280;25286;48.870;9.084;2022-11-20T09:42:36;97536.53;;;6.04;100.00
39593;BME280;25286;48.870;9.084;2022-11-20T09:56:03;97559.38;;;6.03;100.00
39593;BME280;25286;48.870;9.084;2022-11-20T09:58:44;97557.81;;;5.96;100.00
39593;BME280;25286;48.870;9.084;2022-11-20T10:01:16;97552.38;;;5.89;100.00
39593;BME280;25286;48.870;9.084;2022-11-20T10:04:03;97555.09;;;5.96;100.00
39593;BME280;25286;48.870;9.084;2022-11-20T10:06:34;97560.31;;;5.97;100.00
39593;BME280;25286;48.870;9.084;2022-11-20T10:09:17;97551.16;;;5.92;100.00
39593;BME280;25286;48.870;9.084;2022-11-20T10:17:19;97566.38;;;5.74;100.00
39593;BME280;25286;48.870;9.084;2022-11-20T10:22:40;97546.09;;;5.70;100.00
39593;BME280;25286;48.870;9.084;2022-11-20T10:30:17;97559.88;;;5.75;100.00
39593;BME280;25286;48.870;9.084;2022-11-20T10:32:47;97559.72;;;5.70;100.00
39593;BME280;25286;48.870;9.084;2022-11-20T10:35:33;97561.75;;;5.75;100.00
39593;BME280;25286;48.870;9.084;2022-11-20T10:38:05;97560.78;;;5.69;100.00
39593;BME280;25286;48.870;9.084;2022-11-20T10:40:51;97557.53;;;5.54;100.00
39593;BME280;25286;48.870;9.084;2022-11-20T10:43:33;97564.97;;;5.47;100.00
39593;BME280;25286;48.870;9.084;2022-11-20T10:46:05;97545.25;;;5.51;100.00
39593;BME280;25286;48.870;9.084;2022-11-20T10:48:34;97549.34;;;5.60;100.00
39593;BME280;25286;48.870;9.084;2022-11-20T10:51:10;97545.78;;;5.60;100.00
39593;BME280;25286;48.870;9.084;2022-11-20T10:56:20;97549.50;;;5.66;100.00
39593;BME280;25286;48.870;9.084;2022-11-20T10:59:18;97551.47;;;5.77;100.00
39593;BME280;25286;48.870;9.084;2022-11-20T11:01:51;97547.91;;;5.76;100.00
39593;BME280;25286;48.870;9.084;2022-11-20T11:04:52;97546.03;;;5.77;100.00
39593;BME280;25286;48.870;9.084;2022-11-20T11:07:35;97557.97;;;5.76;100.00
39593;BME280;25286;48.870;9.084;2022-11-20T11:10:05;97548.69;;;5.83;100.00
39593;BME280;25286;48.870;9.084;2022-11-20T11:12:43;97538.25;;;5.80;100.00
39593;BME280;25286;48.870;9.084;2022-11-20T11:15:13;97543.84;;;5.85;100.00
39593;BME280;25286;48.870;9.084;2022-11-20T11:17:46;97534.81;;;5.92;100.00
39593;BME280;25286;48.870;9.084;2022-11-20T11:20:20;97530.59;;;6.14;100.00
39593;BME280;25286;48.870;9.084;2022-11-20T11:22:54;97516.63;;;6.22;100.00
39593;BME280;25286;48.870;9.084;2022-11-20T11:25:28;97506.84;;;6.51;100.00
39593;BME280;25286;48.870;9.084;2022-11-20T11:27:57;97501.31;;;6.70;100.00
39593;BME280;25286;48.870;9.084;2022-11-20T11:30:24;97502.66;;;6.91;100.00
39593;BME280;25286;48.870;9.084;2022-11-20T11:32:50;97509.91;;;6.85;100.00
39593;BME280;25286;48.870;9.084;2022-11-20T11:35:20;97497.47;;;6.89;100.00
39593;BME280;25286;48.870;9.084;2022-11-20T11:37:47;97498.34;;;7.36;100.00
39593;BME280;25286;48.870;9.084;2022-11-20T11:40:13;97496.72;;;6.82;99.35
39593;BME280;25286;48.870;9.084;2022-11-20T11:42:44;97491.88;;;6.84;99.17
39593;BME280;25286;48.870;9.084;2022-11-20T11:45:13;97493.09;;;7.00;99.63
39593;BME280;25286;48.870;9.084;2022-11-20T11:47:44;97489.41;;;6.94;99.17
39593;BME280;25286;48.870;9.084;2022-11-20T11:55:27;97476.25;;;7.03;95.83
39593;BME280;25286;48.870;9.084;2022-11-20T12:00:25;97464.53;;;7.49;92.73
39593;BME280;25286;48.870;9.084;2022-11-20T12:03:34;97475.22;;;7.51;90.93
39593;BME280;25286;48.870;9.084;2022-11-20T12:06:18;97480.91;;;8.25;89.74
39593;BME280;25286;48.870;9.084;2022-11-20T12:08:55;97466.53;;;8.29;88.21
39593;BME280;25286;48.870;9.084;2022-11-20T12:16:45;97470.75;;;7.97;82.42
39593;BME280;25286;48.870;9.084;2022-11-20T12:19:12;97463.91;;;7.82;83.13
39593;BME280;25286;48.870;9.084;2022-11-20T12:25:02;97458.19;;;8.24;79.39
39593;BME280;25286;48.870;9.084;2022-11-20T12:27:39;97446.69;;;9.30;75.76
39593;BME280;25286;48.870;9.084;2022-11-20T12:30:19;97443.41;;;8.08;78.11
39593;BME280;25286;48.870;9.084;2022-11-20T12:49:48;97456.25;;;8.48;70.55
39593;BME280;25286;48.870;9.084;2022-11-20T12:57:55;97454.81;;;8.46;70.02
39593;BME280;25286;48.870;9.084;2022-11-20T13:00:23;97456.19;;;13.18;59.37
39593;BME280;25286;48.870;9.084;2022-11-20T13:05:43;97462.19;;;8.05;70.22
39593;BME280;25286;48.870;9.084;2022-11-20T13:08:32;97466.16;;;12.20;60.14
39593;BME280;25286;48.870;9.084;2022-11-20T13:11:07;97461.13;;;11.65;58.07
39593;BME280;25286;48.870;9.084;2022-11-20T13:16:36;97457.78;;;8.73;65.33
39593;BME280;25286;48.870;9.084;2022-11-20T13:19:04;97461.16;;;8.34;69.47
39593;BME280;25286;48.870;9.084;2022-11-20T13:21:43;97445.59;;;8.35;70.13
39593;BME280;25286;48.870;9.084;2022-11-20T13:29:30;97443.81;;;8.40;72.37
39593;BME280;25286;48.870;9.084;2022-11-20T13:32:18;97434.38;;;8.48;70.68
39593;BME280;25286;48.870;9.084;2022-11-20T13:39:51;97421.78;;;7.67;70.00
39593;BME280;25286;48.870;9.084;2022-11-20T13:42:24;97425.72;;;7.59;71.26
39593;BME280;25286;48.870;9.084;2022-11-20T13:45:01;97431.06;;;7.54;71.90
39593;BME280;25286;48.870;9.084;2022-11-20T13:47:29;97428.91;;;7.56;72.46
39593;BME280;25286;48.870;9.084;2022-11-20T13:49:55;97442.91;;;7.59;73.60
39593;BME280;25286;48.870;9.084;2022-11-20T14:00:48;97428.00;;;7.27;74.64
39593;BME280;25286;48.870;9.084;2022-11-20T14:03:21;60690.63;;;-147.00;100.00
39593;BME280;25286;48.870;9.084;2022-11-20T14:05:54;60690.63;;;-147.00;100.00
39593;BME280;25286;48.870;9.084;2022-11-20T14:08:37;60690.63;;;-147.00;100.00
39593;BME280;25286;48.870;9.084;2022-11-20T14:11:12;60690.63;;;-147.00;100.00
39593;BME280;25286;48.870;9.084;2022-11-20T14:13:39;60690.63;;;-147.00;100.00
39593;BME280;25286;48.870;9.084;2022-11-20T14:16:05;60690.63;;;-147.00;100.00
39593;BME280;25286;48.870;9.084;2022-11-20T14:18:30;60690.63;;;-147.00;100.00
39593;BME280;25286;48.870;9.084;2022-11-20T14:21:08;60690.63;;;-147.00;100.00
39593;BME280;25286;48.870;9.084;2022-11-20T14:23:34;60690.63;;;-147.00;100.00
39593;BME280;25286;48.870;9.084;2022-11-20T14:26:00;60690.63;;;-147.00;100.00
39593;BME280;25286;48.870;9.084;2022-11-20T14:28:27;60690.63;;;-147.00;100.00
39593;BME280;25286;48.870;9.084;2022-11-20T14:30:54;60690.63;;;-147.00;100.00
39593;BME280;25286;48.870;9.084;2022-11-20T14:33:20;60690.63;;;-147.00;100.00
39593;BME280;25286;48.870;9.084;2022-11-20T14:35:57;60690.63;;;-147.00;100.00
39593;BME280;25286;48.870;9.084;2022-11-20T14:38:25;60690.63;;;-147.00;100.00
39593;BME280;25286;48.870;9.084;2022-11-20T14:40:52;60690.63;;;-147.00;100.00
39593;BME280;25286;48.870;9.084;2022-11-20T14:43:22;60690.63;;;-147.00;100.00